sensor_id;sensor_type;location;lat;lon;timestamp;pressure;altitude;pressure_sealevel;temperature;humidity
37170;BME280;23062;13.952;100.608;2023-01-31T00:03:31;1013.17;;;25.05;42.81
37170;BME280;23062;13.952;100.608;2023-01-31T00:07:56;1013.20;;;25.08;42.81
37170;BME280;23062;13.952;100.608;2023-01-31T00:12:24;1013.33;;;25.06;42.72
37170;BME280;23062;13.952;100.608;2023-01-31T00:16:49;1013.39;;;25.09;42.58
37170;BME280;23062;13.952;100.608;2023-01-31T00:21:22;1013.42;;;25.14;42.29
37170;BME280;23062;13.952;100.608;2023-01-31T00:25:49;1013.51;;;25.07;42.48
37170;BME280;23062;13.952;100.608;2023-01-31T00:30:14;1013.59;;;25.13;42.63
37170;BME280;23062;13.952;100.608;2023-01-31T00:34:39;1013.63;;;25.11;42.44
37170;BME280;23062;13.952;100.608;2023-01-31T00:39:05;1013.73;;;25.14;42.13
37170;BME280;23062;13.952;100.608;2023-01-31T00:43:31;1013.78;;;25.22;41.45
37170;BME280;23062;13.952;100.608;2023-01-31T00:47:56;1013.82;;;25.23;41.14
37170;BME280;23062;13.952;100.608;2023-01-31T00:52:21;1013.93;;;25.23;40.94
37170;BME280;23062;13.952;100.608;2023-01-31T00:56:46;1013.99;;;25.31;40.19
37170;BME280;23062;13.952;100.608;2023-01-31T01:01:15;1014.05;;;25.31;39.86
37170;BME280;23062;13.952;100.608;2023-01-31T01:05:40;1014.11;;;25.29;39.73
37170;BME280;23062;13.952;100.608;2023-01-31T01:10:05;1014.11;;;25.25;39.67
37170;BME280;23062;13.952;100.608;2023-01-31T01:14:30;1014.13;;;25.26;39.56
37170;BME280;23062;13.952;100.608;2023-01-31T01:18:55;1014.14;;;25.25;39.88
37170;BME280;23062;13.952;100.608;2023-01-31T01:23:20;1014.21;;;25.22;39.04
37170;BME280;23062;13.952;100.608;2023-01-31T01:27:45;1014.29;;;25.30;39.28
37170;BME280;23062;13.952;100.608;2023-01-31T01:32:10;1014.36;;;25.46;38.65
37170;BME280;23062;13.952;100.608;2023-01-31T01:36:38;1014.39;;;25.50;38.66
37170;BME280;23062;13.952;100.608;2023-01-31T01:41:04;1014.47;;;25.54;41.68
37170;BME280;23062;13.952;100.608;2023-01-31T01:45:29;1014.53;;;25.50;42.04
37170;BME280;23062;13.952;100.608;2023-01-31T01:50:09;1014.52;;;25.62;43.19
37170;BME280;23062;13.952;100.608;2023-01-31T01:54:27;1014.51;;;25.62;41.78
37170;BME280;23062;13.952;100.608;2023-01-31T01:58:57;1014.51;;;25.57;40.00
37170;BME280;23062;13.952;100.608;2023-01-31T02:03:22;1014.54;;;25.64;41.26
37170;BME280;23062;13.952;100.608;2023-01-31T02:07:49;1014.56;;;25.76;40.33
37170;BME280;23062;13.952;100.608;2023-01-31T02:12:14;1014.57;;;25.82;39.71
37170;BME280;23062;13.952;100.608;2023-01-31T02:16:39;1014.58;;;25.86;39.44
37170;BME280;23062;13.952;100.608;2023-01-31T02:21:28;1014.57;;;25.89;39.47
37170;BME280;23062;13.952;100.608;2023-01-31T02:25:53;1014.59;;;25.93;39.06
37170;BME280;23062;13.952;100.608;2023-01-31T02:30:23;1014.64;;;25.99;39.27
37170;BME280;23062;13.952;100.608;2023-01-31T02:39:39;1014.68;;;26.05;38.80
37170;BME280;23062;13.952;100.608;2023-01-31T02:44:27;1014.68;;;25.99;41.88
37170;BME280;23062;13.952;100.608;2023-01-31T02:48:56;1014.64;;;26.04;41.05
37170;BME280;23062;13.952;100.608;2023-01-31T02:53:23;1014.67;;;26.15;40.69
37170;BME280;23062;13.952;100.608;2023-01-31T02:57:48;1014.62;;;26.19;40.44
37170;BME280;23062;13.952;100.608;2023-01-31T03:02:13;1014.60;;;26.25;40.43
37170;BME280;23062;13.952;100.608;2023-01-31T03:06:43;1014.55;;;26.28;38.30
37170;BME280;23062;13.952;100.608;2023-01-31T03:11:06;1014.50;;;26.33;39.22
37170;BME280;23062;13.952;100.608;2023-01-31T03:20:58;1014.47;;;26.43;39.42
37170;BME280;23062;13.952;100.608;2023-01-31T03:25:26;1014.42;;;26.46;39.03
37170;BME280;23062;13.952;100.608;2023-01-31T03:29:55;1014.43;;;26.45;39.21
37170;BME280;23062;13.952;100.608;2023-01-31T03:34:20;1014.36;;;26.49;39.26
37170;BME280;23062;13.952;100.608;2023-01-31T03:48:22;1014.24;;;26.60;38.31
37170;BME280;23062;13.952;100.608;2023-01-31T03:52:55;1014.21;;;26.61;37.45
37170;BME280;23062;13.952;100.608;2023-01-31T03:57:24;1014.21;;;26.63;37.38
37170;BME280;23062;13.952;100.608;2023-01-31T04:01:51;1014.15;;;26.67;36.63
37170;BME280;23062;13.952;100.608;2023-01-31T04:06:17;1014.09;;;26.73;36.10
37170;BME280;23062;13.952;100.608;2023-01-31T04:10:43;1013.99;;;26.74;36.21
37170;BME280;23062;13.952;100.608;2023-01-31T04:15:08;1013.89;;;26.76;37.66
37170;BME280;23062;13.952;100.608;2023-01-31T04:19:34;1013.86;;;26.79;36.67
37170;BME280;23062;13.952;100.608;2023-01-31T04:24:00;1013.87;;;26.77;36.88
37170;BME280;23062;13.952;100.608;2023-01-31T04:28:26;1013.68;;;26.84;36.26
37170;BME280;23062;13.952;100.608;2023-01-31T04:32:51;1013.63;;;26.94;36.02
37170;BME280;23062;13.952;100.608;2023-01-31T04:37:17;1013.57;;;26.93;35.84
37170;BME280;23062;13.952;100.608;2023-01-31T04:41:42;1013.47;;;26.92;35.61
37170;BME280;23062;13.952;100.608;2023-01-31T04:46:09;1013.41;;;26.93;35.80
37170;BME280;23062;13.952;100.608;2023-01-31T04:50:34;1013.33;;;26.96;36.34
37170;BME280;23062;13.952;100.608;2023-01-31T04:55:00;1013.26;;;26.97;35.89
37170;BME280;23062;13.952;100.608;2023-01-31T04:59:25;1013.21;;;27.01;35.16
37170;BME280;23062;13.952;100.608;2023-01-31T05:03:50;1013.03;;;27.07;34.15
37170;BME280;23062;13.952;100.608;2023-01-31T05:08:15;1012.94;;;27.36;32.74
37170;BME280;23062;13.952;100.608;2023-01-31T05:12:40;1012.90;;;27.33;32.95
37170;BME280;23062;13.952;100.608;2023-01-31T05:17:05;1012.85;;;27.28;33.87
37170;BME280;23062;13.952;100.608;2023-01-31T05:21:37;1012.74;;;27.22;34.81
37170;BME280;23062;13.952;100.608;2023-01-31T05:26:04;1012.63;;;27.23;34.55
37170;BME280;23062;13.952;100.608;2023-01-31T05:30:29;1012.51;;;27.24;34.31
37170;BME280;23062;13.952;100.608;2023-01-31T05:34:54;1012.39;;;27.23;34.37
37170;BME280;23062;13.952;100.608;2023-01-31T05:39:18;1012.28;;;27.25;34.06
37170;BME280;23062;13.952;100.608;2023-01-31T05:43:44;1012.23;;;27.24;34.87
37170;BME280;23062;13.952;100.608;2023-01-31T05:48:09;1012.07;;;27.26;34.48
37170;BME280;23062;13.952;100.608;2023-01-31T05:52:33;1011.96;;;27.29;34.17
37170;BME280;23062;13.952;100.608;2023-01-31T05:56:58;1011.81;;;27.31;34.14
37170;BME280;23062;13.952;100.608;2023-01-31T06:01:25;1011.71;;;27.35;33.97
37170;BME280;23062;13.952;100.608;2023-01-31T06:05:51;1011.63;;;27.38;34.10
37170;BME280;23062;13.952;100.608;2023-01-31T06:10:16;1011.51;;;27.43;35.25
37170;BME280;23062;13.952;100.608;2023-01-31T06:14:41;1011.30;;;27.51;33.64
37170;BME280;23062;13.952;100.608;2023-01-31T06:19:07;1011.21;;;27.49;34.95
37170;BME280;23062;13.952;100.608;2023-01-31T06:23:32;1011.09;;;27.50;33.92
37170;BME280;23062;13.952;100.608;2023-01-31T06:28:00;1010.98;;;27.56;34.09
37170;BME280;23062;13.952;100.608;2023-01-31T06:32:28;1010.83;;;27.58;34.33
37170;BME280;23062;13.952;100.608;2023-01-31T06:36:53;1010.73;;;27.63;34.16
37170;BME280;23062;13.952;100.608;2023-01-31T06:41:18;1010.63;;;27.62;34.73
37170;BME280;23062;13.952;100.608;2023-01-31T06:45:44;1010.52;;;27.66;34.83
37170;BME280;23062;13.952;100.608;2023-01-31T06:50:10;1010.34;;;27.67;34.55
37170;BME280;23062;13.952;100.608;2023-01-31T06:54:35;1010.20;;;27.66;34.98
37170;BME280;23062;13.952;100.608;2023-01-31T06:59:00;1010.13;;;27.69;34.86
37170;BME280;23062;13.952;100.608;2023-01-31T07:03:26;1010.06;;;27.70;34.83
37170;BME280;23062;13.952;100.608;2023-01-31T07:07:51;1009.97;;;27.70;34.86
37170;BME280;23062;13.952;100.608;2023-01-31T07:12:16;1009.87;;;27.73;34.71
37170;BME280;23062;13.952;100.608;2023-01-31T07:16:41;1009.77;;;28.30;33.42
37170;BME280;23062;13.952;100.608;2023-01-31T07:21:06;1009.68;;;28.04;34.24
37170;BME280;23062;13.952;100.608;2023-01-31T07:25:31;1009.60;;;27.96;34.94
37170;BME280;23062;13.952;100.608;2023-01-31T07:29:56;1009.47;;;27.93;34.88
37170;BME280;23062;13.952;100.608;2023-01-31T07:34:21;1009.38;;;27.93;34.68
37170;BME280;23062;13.952;100.608;2023-01-31T07:38:45;1009.27;;;28.00;34.28
37170;BME280;23062;13.952;100.608;2023-01-31T07:43:10;1009.26;;;27.97;34.63
37170;BME280;23062;13.952;100.608;2023-01-31T07:47:35;1009.20;;;27.98;35.02
37170;BME280;23062;13.952;100.608;2023-01-31T07:52:02;1009.15;;;27.98;34.68
37170;BME280;23062;13.952;100.608;2023-01-31T07:56:27;1009.09;;;27.96;34.68
37170;BME280;23062;13.952;100.608;2023-01-31T08:00:53;1009.02;;;28.00;34.79
37170;BME280;23062;13.952;100.608;2023-01-31T08:05:36;1008.91;;;28.05;34.59
37170;BME280;23062;13.952;100.608;2023-01-31T08:10:04;1008.83;;;28.24;33.57
37170;BME280;23062;13.952;100.608;2023-01-31T08:14:29;1008.81;;;28.18;33.83
37170;BME280;23062;13.952;100.608;2023-01-31T08:18:55;1008.70;;;28.13;34.13
37170;BME280;23062;13.952;100.608;2023-01-31T08:23:20;1008.68;;;28.14;33.98
37170;BME280;23062;13.952;100.608;2023-01-31T08:27:44;1008.68;;;28.13;33.89
37170;BME280;23062;13.952;100.608;2023-01-31T08:32:09;1008.67;;;28.12;33.99
37170;BME280;23062;13.952;100.608;2023-01-31T08:36:35;1008.60;;;28.15;33.93
37170;BME280;23062;13.952;100.608;2023-01-31T08:41:00;1008.58;;;28.17;34.09
37170;BME280;23062;13.952;100.608;2023-01-31T08:45:25;1008.64;;;28.20;34.44
37170;BME280;23062;13.952;100.608;2023-01-31T08:49:50;1008.70;;;28.23;34.68
37170;BME280;23062;13.952;100.608;2023-01-31T08:54:16;1008.68;;;28.21;34.72
37170;BME280;23062;13.952;100.608;2023-01-31T08:58:44;1008.64;;;28.22;34.87
37170;BME280;23062;13.952;100.608;2023-01-31T09:03:14;1008.62;;;28.22;34.95
37170;BME280;23062;13.952;100.608;2023-01-31T09:07:43;1008.57;;;28.21;35.72
37170;BME280;23062;13.952;100.608;2023-01-31T09:12:08;1008.65;;;28.22;35.29
37170;BME280;23062;13.952;100.608;2023-01-31T09:16:33;1008.68;;;28.23;35.63
37170;BME280;23062;13.952;100.608;2023-01-31T09:21:03;1008.75;;;28.24;35.58
37170;BME280;23062;13.952;100.608;2023-01-31T09:25:28;1008.76;;;28.23;35.69
37170;BME280;23062;13.952;100.608;2023-01-31T09:29:53;1008.82;;;28.26;35.69
37170;BME280;23062;13.952;100.608;2023-01-31T09:34:18;1008.88;;;28.26;35.97
37170;BME280;23062;13.952;100.608;2023-01-31T09:38:44;1008.89;;;28.26;36.00
37170;BME280;23062;13.952;100.608;2023-01-31T09:43:10;1008.90;;;28.25;36.21
37170;BME280;23062;13.952;100.608;2023-01-31T09:47:43;1008.91;;;28.25;36.22
37170;BME280;23062;13.952;100.608;2023-01-31T09:52:04;1008.92;;;28.24;36.32
37170;BME280;23062;13.952;100.608;2023-01-31T10:01:25;1008.98;;;28.24;36.42
37170;BME280;23062;13.952;100.608;2023-01-31T10:05:56;1008.92;;;28.24;36.59
37170;BME280;23062;13.952;100.608;2023-01-31T10:10:26;1008.92;;;28.25;36.55
37170;BME280;23062;13.952;100.608;2023-01-31T10:15:15;1008.94;;;28.25;36.54
37170;BME280;23062;13.952;100.608;2023-01-31T10:19:57;1008.97;;;28.25;36.81
37170;BME280;23062;13.952;100.608;2023-01-31T10:29:01;1009.04;;;28.25;36.91
37170;BME280;23062;13.952;100.608;2023-01-31T10:38:11;1009.08;;;28.24;37.46
37170;BME280;23062;13.952;100.608;2023-01-31T10:46:58;1009.13;;;28.23;37.22
37170;BME280;23062;13.952;100.608;2023-01-31T10:51:34;1009.14;;;28.21;37.53
37170;BME280;23062;13.952;100.608;2023-01-31T10:56:14;1009.14;;;28.21;37.88
37170;BME280;23062;13.952;100.608;2023-01-31T11:00:36;1009.17;;;28.21;37.69
37170;BME280;23062;13.952;100.608;2023-01-31T11:05:00;1009.20;;;28.04;38.38
37170;BME280;23062;13.952;100.608;2023-01-31T11:09:28;1009.19;;;28.03;38.69
37170;BME280;23062;13.952;100.608;2023-01-31T11:14:00;1009.19;;;28.06;38.78
37170;BME280;23062;13.952;100.608;2023-01-31T11:23:04;1009.28;;;28.04;38.70
37170;BME280;23062;13.952;100.608;2023-01-31T11:27:32;1009.31;;;28.06;38.73
37170;BME280;23062;13.952;100.608;2023-01-31T11:31:57;1009.35;;;28.04;38.90
37170;BME280;23062;13.952;100.608;2023-01-31T11:36:22;1009.41;;;28.02;39.10
37170;BME280;23062;13.952;100.608;2023-01-31T11:40:50;1009.46;;;28.06;39.10
37170;BME280;23062;13.952;100.608;2023-01-31T11:45:20;1009.51;;;28.02;39.35
37170;BME280;23062;13.952;100.608;2023-01-31T11:49:46;1009.52;;;28.00;39.30
37170;BME280;23062;13.952;100.608;2023-01-31T11:54:23;1009.59;;;27.95;39.47
37170;BME280;23062;13.952;100.608;2023-01-31T11:58:45;1009.62;;;28.08;39.32
37170;BME280;23062;13.952;100.608;2023-01-31T12:03:14;1009.69;;;28.16;39.39
37170;BME280;23062;13.952;100.608;2023-01-31T12:07:47;1009.85;;;28.20;39.58
37170;BME280;23062;13.952;100.608;2023-01-31T12:16:58;1009.97;;;28.23;39.94
37170;BME280;23062;13.952;100.608;2023-01-31T12:26:07;1010.06;;;28.22;40.43
37170;BME280;23062;13.952;100.608;2023-01-31T12:35:22;1010.21;;;28.27;40.58
37170;BME280;23062;13.952;100.608;2023-01-31T12:39:58;1010.28;;;28.25;40.78
37170;BME280;23062;13.952;100.608;2023-01-31T12:44:40;1010.34;;;28.25;41.06
37170;BME280;23062;13.952;100.608;2023-01-31T12:49:14;1010.43;;;28.17;41.17
37170;BME280;23062;13.952;100.608;2023-01-31T13:03:54;1010.58;;;28.10;41.54
37170;BME280;23062;13.952;100.608;2023-01-31T13:08:18;1010.59;;;28.10;41.45
37170;BME280;23062;13.952;100.608;2023-01-31T13:12:44;1010.63;;;28.05;41.58
37170;BME280;23062;13.952;100.608;2023-01-31T13:17:11;1010.68;;;28.04;41.66
37170;BME280;23062;13.952;100.608;2023-01-31T13:21:40;1010.71;;;28.05;41.56
37170;BME280;23062;13.952;100.608;2023-01-31T13:31:01;1010.76;;;28.10;41.37
37170;BME280;23062;13.952;100.608;2023-01-31T13:35:35;1010.78;;;28.09;41.42
37170;BME280;23062;13.952;100.608;2023-01-31T13:40:00;1010.84;;;28.08;41.48
37170;BME280;23062;13.952;100.608;2023-01-31T13:44:25;1010.89;;;28.07;41.50
37170;BME280;23062;13.952;100.608;2023-01-31T13:48:58;1010.88;;;28.05;41.45
37170;BME280;23062;13.952;100.608;2023-01-31T13:53:26;1010.87;;;28.04;41.57
37170;BME280;23062;13.952;100.608;2023-01-31T13:57:54;1010.94;;;28.04;41.63
37170;BME280;23062;13.952;100.608;2023-01-31T14:02:19;1010.99;;;28.02;41.62
37170;BME280;23062;13.952;100.608;2023-01-31T14:06:54;1011.02;;;28.01;41.72
37170;BME280;23062;13.952;100.608;2023-01-31T14:15:49;1011.13;;;28.01;41.80
37170;BME280;23062;13.952;100.608;2023-01-31T14:20:28;1011.19;;;28.01;41.90
37170;BME280;23062;13.952;100.608;2023-01-31T14:29:24;1011.29;;;28.00;41.96
37170;BME280;23062;13.952;100.608;2023-01-31T14:33:50;1011.26;;;28.00;42.04
37170;BME280;23062;13.952;100.608;2023-01-31T14:43:22;1011.34;;;27.99;42.15
37170;BME280;23062;13.952;100.608;2023-01-31T14:57:37;1011.30;;;27.98;42.33
37170;BME280;23062;13.952;100.608;2023-01-31T15:02:00;1011.38;;;27.96;42.44
37170;BME280;23062;13.952;100.608;2023-01-31T15:06:37;1011.36;;;27.95;42.42
37170;BME280;23062;13.952;100.608;2023-01-31T15:11:06;1011.34;;;27.95;42.48
37170;BME280;23062;13.952;100.608;2023-01-31T15:15:38;1011.37;;;27.94;42.39
37170;BME280;23062;13.952;100.608;2023-01-31T15:20:25;1011.36;;;27.94;42.39
37170;BME280;23062;13.952;100.608;2023-01-31T15:24:56;1011.39;;;27.94;42.45
37170;BME280;23062;13.952;100.608;2023-01-31T15:29:30;1011.38;;;27.93;42.52
37170;BME280;23062;13.952;100.608;2023-01-31T15:33:50;1011.36;;;27.93;42.38
37170;BME280;23062;13.952;100.608;2023-01-31T15:43:22;1011.31;;;27.92;42.44
37170;BME280;23062;13.952;100.608;2023-01-31T15:52:34;1011.29;;;27.91;42.56
37170;BME280;23062;13.952;100.608;2023-01-31T15:57:00;1011.32;;;27.90;42.62
37170;BME280;23062;13.952;100.608;2023-01-31T16:01:26;1011.34;;;27.89;42.64
37170;BME280;23062;13.952;100.608;2023-01-31T16:05:55;1011.34;;;27.89;42.66
37170;BME280;23062;13.952;100.608;2023-01-31T16:10:19;1011.28;;;27.88;42.57
37170;BME280;23062;13.952;100.608;2023-01-31T16:14:46;1011.32;;;27.88;42.63
37170;BME280;23062;13.952;100.608;2023-01-31T16:19:18;1011.26;;;27.87;42.53
37170;BME280;23062;13.952;100.608;2023-01-31T16:23:44;1011.28;;;27.87;42.52
37170;BME280;23062;13.952;100.608;2023-01-31T16:28:10;1011.28;;;27.86;42.51
37170;BME280;23062;13.952;100.608;2023-01-31T16:32:37;1011.32;;;27.86;42.42
37170;BME280;23062;13.952;100.608;2023-01-31T16:37:06;1011.32;;;27.85;42.47
37170;BME280;23062;13.952;100.608;2023-01-31T16:41:51;1011.25;;;27.85;42.44
37170;BME280;23062;13.952;100.608;2023-01-31T16:46:35;1011.21;;;27.85;42.48
37170;BME280;23062;13.952;100.608;2023-01-31T16:50:50;1011.24;;;27.84;42.53
37170;BME280;23062;13.952;100.608;2023-01-31T16:55:20;1011.16;;;27.83;42.50
37170;BME280;23062;13.952;100.608;2023-01-31T16:59:50;1011.17;;;27.83;42.54
37170;BME280;23062;13.952;100.608;2023-01-31T17:04:17;1011.14;;;27.82;42.67
37170;BME280;23062;13.952;100.608;2023-01-31T17:08:42;1011.12;;;27.81;42.70
37170;BME280;23062;13.952;100.608;2023-01-31T17:13:15;1011.09;;;27.81;42.76
37170;BME280;23062;13.952;100.608;2023-01-31T17:17:39;1011.03;;;27.80;42.84
37170;BME280;23062;13.952;100.608;2023-01-31T17:22:03;1010.97;;;27.79;42.86
37170;BME280;23062;13.952;100.608;2023-01-31T17:26:30;1010.95;;;27.79;42.93
37170;BME280;23062;13.952;100.608;2023-01-31T17:30:55;1010.89;;;27.78;43.02
37170;BME280;23062;13.952;100.608;2023-01-31T17:35:43;1010.87;;;27.77;42.99
37170;BME280;23062;13.952;100.608;2023-01-31T17:40:10;1010.91;;;27.78;42.96
37170;BME280;23062;13.952;100.608;2023-01-31T17:44:35;1010.90;;;27.76;43.06
37170;BME280;23062;13.952;100.608;2023-01-31T17:49:00;1010.96;;;27.75;42.99
37170;BME280;23062;13.952;100.608;2023-01-31T17:53:28;1010.85;;;27.75;43.04
37170;BME280;23062;13.952;100.608;2023-01-31T17:57:52;1010.81;;;27.74;43.08
37170;BME280;23062;13.952;100.608;2023-01-31T18:02:17;1010.84;;;27.74;43.17
37170;BME280;23062;13.952;100.608;2023-01-31T18:06:42;1010.82;;;27.73;43.18
37170;BME280;23062;13.952;100.608;2023-01-31T18:11:09;1010.80;;;27.73;43.23
37170;BME280;23062;13.952;100.608;2023-01-31T18:15:35;1010.81;;;27.73;43.25
37170;BME280;23062;13.952;100.608;2023-01-31T18:20:01;1010.75;;;27.72;43.27
37170;BME280;23062;13.952;100.608;2023-01-31T18:24:30;1010.69;;;27.71;43.40
37170;BME280;23062;13.952;100.608;2023-01-31T18:28:54;1010.67;;;27.70;43.43
37170;BME280;23062;13.952;100.608;2023-01-31T18:33:19;1010.61;;;27.70;43.46
37170;BME280;23062;13.952;100.608;2023-01-31T18:37:44;1010.57;;;27.70;43.44
37170;BME280;23062;13.952;100.608;2023-01-31T18:42:08;1010.52;;;27.69;43.51
37170;BME280;23062;13.952;100.608;2023-01-31T18:46:33;1010.47;;;27.68;43.51
37170;BME280;23062;13.952;100.608;2023-01-31T18:51:07;1010.48;;;27.68;43.53
37170;BME280;23062;13.952;100.608;2023-01-31T18:55:29;1010.46;;;27.67;43.47
37170;BME280;23062;13.952;100.608;2023-01-31T18:59:53;1010.42;;;27.67;43.48
37170;BME280;23062;13.952;100.608;2023-01-31T19:04:18;1010.36;;;27.66;43.45
37170;BME280;23062;13.952;100.608;2023-01-31T19:08:46;1010.37;;;27.65;43.43
37170;BME280;23062;13.952;100.608;2023-01-31T19:13:09;1010.35;;;27.65;43.42
37170;BME280;23062;13.952;100.608;2023-01-31T19:17:36;1010.30;;;27.63;43.45
37170;BME280;23062;13.952;100.608;2023-01-31T19:22:01;1010.32;;;27.63;43.49
37170;BME280;23062;13.952;100.608;2023-01-31T19:26:26;1010.29;;;27.63;43.54
37170;BME280;23062;13.952;100.608;2023-01-31T19:30:52;1010.20;;;27.62;43.62
37170;BME280;23062;13.952;100.608;2023-01-31T19:35:18;1010.18;;;27.62;43.64
37170;BME280;23062;13.952;100.608;2023-01-31T19:39:46;1010.18;;;27.62;43.68
37170;BME280;23062;13.952;100.608;2023-01-31T19:44:11;1010.09;;;27.61;43.67
37170;BME280;23062;13.952;100.608;2023-01-31T19:48:37;1010.06;;;27.60;43.72
37170;BME280;23062;13.952;100.608;2023-01-31T19:53:02;1010.04;;;27.60;43.77
37170;BME280;23062;13.952;100.608;2023-01-31T19:57:27;1010.04;;;27.60;43.82
37170;BME280;23062;13.952;100.608;2023-01-31T20:01:55;1009.98;;;27.59;43.77
37170;BME280;23062;13.952;100.608;2023-01-31T20:06:21;1009.96;;;27.59;43.89
37170;BME280;23062;13.952;100.608;2023-01-31T20:10:52;1009.88;;;27.59;43.99
37170;BME280;23062;13.952;100.608;2023-01-31T20:15:16;1009.92;;;27.59;44.09
37170;BME280;23062;13.952;100.608;2023-01-31T20:19:43;1009.94;;;27.59;44.13
37170;BME280;23062;13.952;100.608;2023-01-31T20:24:09;1009.93;;;27.58;44.28
37170;BME280;23062;13.952;100.608;2023-01-31T20:28:35;1009.84;;;27.58;44.38
37170;BME280;23062;13.952;100.608;2023-01-31T20:33:00;1009.85;;;27.57;44.44
37170;BME280;23062;13.952;100.608;2023-01-31T20:37:25;1009.86;;;27.58;44.48
37170;BME280;23062;13.952;100.608;2023-01-31T20:41:50;1009.78;;;27.40;45.46
37170;BME280;23062;13.952;100.608;2023-01-31T20:46:15;1009.76;;;26.82;47.65
37170;BME280;23062;13.952;100.608;2023-01-31T20:50:41;1009.77;;;26.49;49.06
37170;BME280;23062;13.952;100.608;2023-01-31T20:55:06;1009.80;;;26.41;50.20
37170;BME280;23062;13.952;100.608;2023-01-31T20:59:34;1009.84;;;26.34;51.72
37170;BME280;23062;13.952;100.608;2023-01-31T21:03:58;1009.87;;;26.27;52.61
37170;BME280;23062;13.952;100.608;2023-01-31T21:08:23;1009.88;;;26.16;52.82
37170;BME280;23062;13.952;100.608;2023-01-31T21:12:48;1009.83;;;26.06;53.01
37170;BME280;23062;13.952;100.608;2023-01-31T21:17:16;1009.83;;;26.03;53.24
37170;BME280;23062;13.952;100.608;2023-01-31T21:21:41;1009.78;;;26.01;53.07
37170;BME280;23062;13.952;100.608;2023-01-31T21:26:10;1009.73;;;25.94;52.73
37170;BME280;23062;13.952;100.608;2023-01-31T21:30:35;1009.73;;;25.91;52.66
37170;BME280;23062;13.952;100.608;2023-01-31T21:35:00;1009.76;;;25.84;52.40
37170;BME280;23062;13.952;100.608;2023-01-31T21:39:23;1009.70;;;25.63;52.43
37170;BME280;23062;13.952;100.608;2023-01-31T21:43:47;1009.72;;;25.48;52.56
37170;BME280;23062;13.952;100.608;2023-01-31T21:48:12;1009.82;;;25.36;52.61
37170;BME280;23062;13.952;100.608;2023-01-31T21:52:56;1009.79;;;25.27;52.55
37170;BME280;23062;13.952;100.608;2023-01-31T21:57:20;1009.82;;;25.23;52.44
37170;BME280;23062;13.952;100.608;2023-01-31T22:01:46;1009.87;;;25.13;52.60
37170;BME280;23062;13.952;100.608;2023-01-31T22:06:13;1009.89;;;25.02;53.03
37170;BME280;23062;13.952;100.608;2023-01-31T22:10:38;1009.87;;;25.03;53.81
37170;BME280;23062;13.952;100.608;2023-01-31T22:15:06;1009.88;;;25.01;54.58
37170;BME280;23062;13.952;100.608;2023-01-31T22:19:31;1009.87;;;24.94;55.00
37170;BME280;23062;13.952;100.608;2023-01-31T22:23:57;1009.95;;;24.89;55.61
37170;BME280;23062;13.952;100.608;2023-01-31T22:28:22;1010.01;;;24.96;55.14
37170;BME280;23062;13.952;100.608;2023-01-31T22:32:48;1009.94;;;25.42;54.29
37170;BME280;23062;13.952;100.608;2023-01-31T22:37:12;1009.93;;;25.69;53.49
37170;BME280;23062;13.952;100.608;2023-01-31T22:41:38;1009.97;;;25.78;53.07
37170;BME280;23062;13.952;100.608;2023-01-31T22:46:02;1009.98;;;25.43;54.14
37170;BME280;23062;13.952;100.608;2023-01-31T22:50:27;1010.01;;;25.84;53.11
37170;BME280;23062;13.952;100.608;2023-01-31T22:54:55;1009.94;;;25.99;52.62
37170;BME280;23062;13.952;100.608;2023-01-31T22:59:20;1009.90;;;26.03;52.32
37170;BME280;23062;13.952;100.608;2023-01-31T23:03:46;1010.01;;;26.10;51.90
37170;BME280;23062;13.952;100.608;2023-01-31T23:08:11;1010.10;;;26.09;51.68
37170;BME280;23062;13.952;100.608;2023-01-31T23:12:37;1010.09;;;26.15;51.27
37170;BME280;23062;13.952;100.608;2023-01-31T23:17:03;1010.18;;;26.14;51.36
37170;BME280;23062;13.952;100.608;2023-01-31T23:21:45;1010.27;;;26.12;51.59
37170;BME280;23062;13.952;100.608;2023-01-31T23:26:11;1010.28;;;26.12;51.64
37170;BME280;23062;13.952;100.608;2023-01-31T23:30:36;1010.34;;;26.09;51.83
37170;BME280;23062;13.952;100.608;2023-01-31T23:35:01;1010.33;;;26.10;51.84
37170;BME280;23062;13.952;100.608;2023-01-31T23:39:26;1010.38;;;26.11;51.98
37170;BME280;23062;13.952;100.608;2023-01-31T23:43:51;1010.45;;;26.08;52.01
37170;BME280;23062;13.952;100.608;2023-01-31T23:48:19;1010.50;;;26.09;52.10
37170;BME280;23062;13.952;100.608;2023-01-31T23:52:47;1010.50;;;26.04;52.26
37170;BME280;23062;13.952;100.608;2023-01-31T23:57:12;1010.59;;;26.07;52.18
